DLH3EV EGLL-EDDH
Flight info
| Callsign | DLH3EV |
|---|---|
| Flight time | N/A |
| Altitude | 35000 |
| Route | BPK Q295 SOMVA DCT MAVAS DCT PABCO M105 RIBSO RIBSO7A |
| Aircraft | A320/M-DFGHILY/LB1 |
Departure
| Time | 2026-05-05 13:07 |
|---|---|
| Airport | London Heathrow Airport (EGLL) |
Arrival
| Time | N/A |
|---|---|
| Airport | Hamburg Helmut Schmidt Airport (EDDH) |
| Time | Latitude | Longitude | Altitude | Speed | Heading |
|---|---|---|---|---|---|
| 2026-05-05 12:22 | 51.47143 | -0.47510 | 84 ft | 0 kts | 270° |
| 2026-05-05 12:51 | 51.47144 | -0.47489 | 84 ft | 3 kts | 266° |
| 2026-05-05 12:51 | 51.47146 | -0.47457 | 84 ft | 3 kts | 261° |
| 2026-05-05 12:51 | 51.47151 | -0.47425 | 84 ft | 3 kts | 253° |
| 2026-05-05 12:51 | 51.47159 | -0.47395 | 84 ft | 3 kts | 240° |
| 2026-05-05 12:52 | 51.47172 | -0.47371 | 84 ft | 3 kts | 219° |
| 2026-05-05 12:52 | 51.47190 | -0.47358 | 84 ft | 3 kts | 197° |
| 2026-05-05 12:52 | 51.47200 | -0.47353 | 84 ft | 0 kts | 193° |
| 2026-05-05 12:52 | 51.47200 | -0.47354 | 84 ft | 0 kts | 187° |
| 2026-05-05 12:57 | 51.47173 | -0.47358 | 84 ft | 6 kts | 182° |
| 2026-05-05 12:57 | 51.47116 | -0.47358 | 84 ft | 9 kts | 180° |
| 2026-05-05 12:57 | 51.47060 | -0.47357 | 84 ft | 8 kts | 179° |
| 2026-05-05 12:57 | 51.46995 | -0.47356 | 84 ft | 10 kts | 179° |
| 2026-05-05 12:58 | 51.46932 | -0.47355 | 84 ft | 8 kts | 179° |
| 2026-05-05 12:58 | 51.46875 | -0.47354 | 84 ft | 8 kts | 179° |
| 2026-05-05 12:58 | 51.46813 | -0.47352 | 84 ft | 9 kts | 179° |
| 2026-05-05 12:58 | 51.46757 | -0.47372 | 84 ft | 8 kts | 228° |
| 2026-05-05 12:59 | 51.46744 | -0.47447 | 84 ft | 8 kts | 268° |
| 2026-05-05 12:59 | 51.46743 | -0.47565 | 84 ft | 11 kts | 270° |
| 2026-05-05 12:59 | 51.46743 | -0.47678 | 84 ft | 10 kts | 270° |
| 2026-05-05 13:00 | 51.46744 | -0.47860 | 84 ft | 7 kts | 269° |
| 2026-05-05 13:00 | 51.46743 | -0.47933 | 84 ft | 6 kts | 269° |
| 2026-05-05 13:01 | 51.46742 | -0.48032 | 83 ft | 0 kts | 269° |
| 2026-05-05 13:03 | 51.46742 | -0.48040 | 83 ft | 3 kts | 269° |
| 2026-05-05 13:03 | 51.46741 | -0.48103 | 83 ft | 8 kts | 269° |
| 2026-05-05 13:03 | 51.46729 | -0.48193 | 83 ft | 8 kts | 227° |
| 2026-05-05 13:03 | 51.46682 | -0.48218 | 83 ft | 7 kts | 178° |
| 2026-05-05 13:04 | 51.46638 | -0.48215 | 83 ft | 6 kts | 178° |
| 2026-05-05 13:04 | 51.46603 | -0.48214 | 83 ft | 4 kts | 179° |
| 2026-05-05 13:04 | 51.46577 | -0.48213 | 83 ft | 3 kts | 179° |
| 2026-05-05 13:04 | 51.46549 | -0.48213 | 84 ft | 7 kts | 179° |
| 2026-05-05 13:05 | 51.46501 | -0.48211 | 84 ft | 5 kts | 172° |
| 2026-05-05 13:05 | 51.46480 | -0.48184 | 84 ft | 3 kts | 103° |
| 2026-05-05 13:05 | 51.46478 | -0.48158 | 84 ft | 0 kts | 90° |
| 2026-05-05 13:06 | 51.46478 | -0.48145 | 84 ft | 11 kts | 90° |
| 2026-05-05 13:07 | 51.46480 | -0.47615 | 85 ft | 84 kts | 89° |
| 2026-05-05 13:07 | 51.46487 | -0.46304 | 88 ft | 151 kts | 90° |
| 2026-05-05 13:07 | 51.46488 | -0.44485 | 567 ft | 163 kts | 88° |
| 2026-05-05 13:07 | 51.46473 | -0.42700 | 1381 ft | 159 kts | 89° |
| 2026-05-05 13:08 | 51.46746 | -0.40982 | 1901 ft | 169 kts | 54° |
| 2026-05-05 13:08 | 51.47502 | -0.39428 | 2258 ft | 186 kts | 52° |
| 2026-05-05 13:08 | 51.48376 | -0.37815 | 2762 ft | 197 kts | 49° |
| 2026-05-05 13:08 | 51.49357 | -0.36209 | 3260 ft | 210 kts | 44° |
| 2026-05-05 13:09 | 51.50417 | -0.34484 | 3713 ft | 225 kts | 50° |
| 2026-05-05 13:09 | 51.51432 | -0.32439 | 4221 ft | 244 kts | 54° |
| 2026-05-05 13:09 | 51.52339 | -0.30068 | 4832 ft | 258 kts | 68° |
| 2026-05-05 13:09 | 51.52895 | -0.27298 | 5611 ft | 264 kts | 72° |
| 2026-05-05 13:10 | 51.53426 | -0.24469 | 6492 ft | 268 kts | 72° |
| 2026-05-05 13:10 | 51.53965 | -0.21593 | 7388 ft | 270 kts | 72° |
| 2026-05-05 13:10 | 51.54786 | -0.18914 | 8192 ft | 271 kts | 45° |
| 2026-05-05 13:10 | 51.56393 | -0.17390 | 8863 ft | 278 kts | 16° |
| 2026-05-05 13:11 | 51.58306 | -0.16817 | 9631 ft | 282 kts | 8° |
| 2026-05-05 13:11 | 51.60267 | -0.16568 | 10384 ft | 290 kts | 5° |
| 2026-05-05 13:11 | 51.62324 | -0.16145 | 10825 ft | 307 kts | 12° |
| 2026-05-05 13:11 | 51.64424 | -0.15405 | 11557 ft | 313 kts | 15° |
| 2026-05-05 13:12 | 51.66546 | -0.14514 | 12430 ft | 317 kts | 16° |
| 2026-05-05 13:12 | 51.68676 | -0.13563 | 13327 ft | 323 kts | 17° |
| 2026-05-05 13:12 | 51.70856 | -0.12566 | 14132 ft | 331 kts | 18° |
| 2026-05-05 13:12 | 51.72906 | -0.11034 | 15090 ft | 329 kts | 38° |
| 2026-05-05 13:13 | 51.74458 | -0.08338 | 16005 ft | 332 kts | 59° |
| 2026-05-05 13:13 | 51.75306 | -0.04880 | 16881 ft | 336 kts | 76° |
| 2026-05-05 13:13 | 51.75757 | -0.01152 | 17737 ft | 345 kts | 80° |
| 2026-05-05 13:13 | 51.76100 | 0.02712 | 18574 ft | 352 kts | 82° |
| 2026-05-05 13:14 | 51.76421 | 0.06621 | 19535 ft | 357 kts | 82° |
| 2026-05-05 13:14 | 51.76745 | 0.10602 | 20502 ft | 362 kts | 82° |
| 2026-05-05 13:14 | 51.77075 | 0.14637 | 21437 ft | 367 kts | 82° |
| 2026-05-05 13:14 | 51.77408 | 0.18724 | 22322 ft | 372 kts | 82° |
| 2026-05-05 13:15 | 51.77745 | 0.22861 | 23159 ft | 377 kts | 82° |
| 2026-05-05 13:15 | 51.78087 | 0.27076 | 23959 ft | 382 kts | 82° |
| 2026-05-05 13:15 | 51.78430 | 0.31323 | 24714 ft | 386 kts | 82° |
| 2026-05-05 13:15 | 51.78775 | 0.35620 | 25460 ft | 389 kts | 82° |
| 2026-05-05 13:16 | 51.79122 | 0.39950 | 26261 ft | 390 kts | 82° |
| 2026-05-05 13:16 | 51.79466 | 0.44282 | 26940 ft | 393 kts | 82° |
| 2026-05-05 13:16 | 51.79811 | 0.48638 | 27580 ft | 395 kts | 82° |
| 2026-05-05 13:16 | 51.80149 | 0.52925 | 28169 ft | 397 kts | 82° |
| 2026-05-05 13:17 | 51.80495 | 0.57335 | 28733 ft | 399 kts | 82° |
| 2026-05-05 13:17 | 51.80841 | 0.61774 | 29260 ft | 401 kts | 82° |
| 2026-05-05 13:17 | 51.81406 | 0.66154 | 29778 ft | 399 kts | 72° |
| 2026-05-05 13:17 | 51.82369 | 0.70312 | 30321 ft | 398 kts | 68° |
| 2026-05-05 13:18 | 51.83465 | 0.74422 | 30717 ft | 401 kts | 68° |
| 2026-05-05 13:18 | 51.84570 | 0.78555 | 31080 ft | 403 kts | 69° |
| 2026-05-05 13:18 | 51.85657 | 0.82713 | 31504 ft | 404 kts | 69° |
| 2026-05-05 13:18 | 51.86738 | 0.86902 | 31853 ft | 406 kts | 68° |
| 2026-05-05 13:19 | 51.87813 | 0.91082 | 32315 ft | 405 kts | 68° |
| 2026-05-05 13:19 | 51.88891 | 0.95276 | 32753 ft | 405 kts | 67° |
| 2026-05-05 13:19 | 51.89964 | 0.99460 | 33110 ft | 406 kts | 67° |
| 2026-05-05 13:19 | 51.91043 | 1.03671 | 33454 ft | 408 kts | 67° |
| 2026-05-05 13:20 | 51.92125 | 1.07901 | 33788 ft | 409 kts | 67° |
| 2026-05-05 13:20 | 51.93200 | 1.12116 | 34034 ft | 410 kts | 68° |
| 2026-05-05 13:20 | 51.94287 | 1.16383 | 34283 ft | 411 kts | 68° |
| 2026-05-05 13:20 | 51.95367 | 1.20629 | 34531 ft | 412 kts | 68° |
| 2026-05-05 13:21 | 51.96454 | 1.24915 | 34780 ft | 412 kts | 68° |
| 2026-05-05 13:21 | 51.97544 | 1.29219 | 34965 ft | 413 kts | 68° |
| 2026-05-05 13:21 | 51.99707 | 1.37786 | 34997 ft | 413 kts | 68° |